sensor_id;sensor_type;location;lat;lon;timestamp;temperature;humidity
14733;DHT22;7457;50.960;6.830;2023-04-24T00:00:04;11.00;80.50
14733;DHT22;7457;50.960;6.830;2023-04-24T00:02:37;11.00;80.60
14733;DHT22;7457;50.960;6.830;2023-04-24T00:05:04;11.00;80.70
14733;DHT22;7457;50.960;6.830;2023-04-24T00:10:12;10.90;80.80
14733;DHT22;7457;50.960;6.830;2023-04-24T00:12:38;10.90;81.00
14733;DHT22;7457;50.960;6.830;2023-04-24T00:15:05;10.90;81.10
14733;DHT22;7457;50.960;6.830;2023-04-24T00:17:31;10.90;81.10
14733;DHT22;7457;50.960;6.830;2023-04-24T00:19:57;10.80;80.90
14733;DHT22;7457;50.960;6.830;2023-04-24T00:22:29;10.90;80.90
14733;DHT22;7457;50.960;6.830;2023-04-24T00:24:54;10.90;80.70
14733;DHT22;7457;50.960;6.830;2023-04-24T00:27:20;10.90;80.60
14733;DHT22;7457;50.960;6.830;2023-04-24T00:29:46;10.90;80.60
14733;DHT22;7457;50.960;6.830;2023-04-24T00:32:12;10.80;80.60
14733;DHT22;7457;50.960;6.830;2023-04-24T00:34:37;10.80;80.60
14733;DHT22;7457;50.960;6.830;2023-04-24T00:37:03;10.70;80.70
14733;DHT22;7457;50.960;6.830;2023-04-24T00:39:29;10.70;80.70
14733;DHT22;7457;50.960;6.830;2023-04-24T00:41:54;10.70;80.80
14733;DHT22;7457;50.960;6.830;2023-04-24T00:44:20;10.70;80.90
14733;DHT22;7457;50.960;6.830;2023-04-24T00:46:47;10.70;80.90
14733;DHT22;7457;50.960;6.830;2023-04-24T00:49:18;10.70;81.00
14733;DHT22;7457;50.960;6.830;2023-04-24T00:51:44;10.70;81.00
14733;DHT22;7457;50.960;6.830;2023-04-24T00:54:12;10.60;81.10
14733;DHT22;7457;50.960;6.830;2023-04-24T00:56:37;10.60;81.10
14733;DHT22;7457;50.960;6.830;2023-04-24T00:59:03;10.60;81.10
14733;DHT22;7457;50.960;6.830;2023-04-24T01:01:30;10.60;81.10
14733;DHT22;7457;50.960;6.830;2023-04-24T01:03:57;10.60;80.60
14733;DHT22;7457;50.960;6.830;2023-04-24T01:06:23;10.60;80.60
14733;DHT22;7457;50.960;6.830;2023-04-24T01:08:52;10.50;80.30
14733;DHT22;7457;50.960;6.830;2023-04-24T01:11:18;10.60;79.50
14733;DHT22;7457;50.960;6.830;2023-04-24T01:13:46;10.60;78.90
14733;DHT22;7457;50.960;6.830;2023-04-24T01:16:12;10.60;79.00
14733;DHT22;7457;50.960;6.830;2023-04-24T01:18:38;10.60;79.00
14733;DHT22;7457;50.960;6.830;2023-04-24T01:21:04;10.50;78.90
14733;DHT22;7457;50.960;6.830;2023-04-24T01:23:30;10.50;78.70
14733;DHT22;7457;50.960;6.830;2023-04-24T01:25:56;10.40;78.40
14733;DHT22;7457;50.960;6.830;2023-04-24T01:28:22;10.40;78.20
14733;DHT22;7457;50.960;6.830;2023-04-24T01:30:48;10.30;78.20
14733;DHT22;7457;50.960;6.830;2023-04-24T01:33:14;10.20;78.20
14733;DHT22;7457;50.960;6.830;2023-04-24T01:35:40;10.10;78.10
14733;DHT22;7457;50.960;6.830;2023-04-24T01:38:05;10.10;78.10
14733;DHT22;7457;50.960;6.830;2023-04-24T01:40:32;10.00;78.00
14733;DHT22;7457;50.960;6.830;2023-04-24T01:42:58;9.90;78.00
14733;DHT22;7457;50.960;6.830;2023-04-24T01:45:24;9.90;78.20
14733;DHT22;7457;50.960;6.830;2023-04-24T01:47:50;9.80;78.30
14733;DHT22;7457;50.960;6.830;2023-04-24T01:50:16;9.70;78.50
14733;DHT22;7457;50.960;6.830;2023-04-24T01:52:42;9.60;78.60
14733;DHT22;7457;50.960;6.830;2023-04-24T01:55:08;9.50;78.80
14733;DHT22;7457;50.960;6.830;2023-04-24T01:57:34;9.40;79.00
14733;DHT22;7457;50.960;6.830;2023-04-24T02:00:00;9.30;79.20
14733;DHT22;7457;50.960;6.830;2023-04-24T02:02:26;9.20;79.50
14733;DHT22;7457;50.960;6.830;2023-04-24T02:04:55;9.10;79.90
14733;DHT22;7457;50.960;6.830;2023-04-24T02:07:21;9.00;80.20
14733;DHT22;7457;50.960;6.830;2023-04-24T02:09:47;8.90;80.60
14733;DHT22;7457;50.960;6.830;2023-04-24T02:12:13;8.80;80.90
14733;DHT22;7457;50.960;6.830;2023-04-24T02:14:39;8.70;81.30
14733;DHT22;7457;50.960;6.830;2023-04-24T02:17:05;8.70;81.80
14733;DHT22;7457;50.960;6.830;2023-04-24T02:19:30;8.60;82.10
14733;DHT22;7457;50.960;6.830;2023-04-24T02:21:56;8.60;82.50
14733;DHT22;7457;50.960;6.830;2023-04-24T02:24:22;8.60;82.40
14733;DHT22;7457;50.960;6.830;2023-04-24T02:26:47;8.50;82.50
14733;DHT22;7457;50.960;6.830;2023-04-24T02:29:13;8.50;82.60
14733;DHT22;7457;50.960;6.830;2023-04-24T02:31:38;8.60;82.80
14733;DHT22;7457;50.960;6.830;2023-04-24T02:34:04;8.60;82.90
14733;DHT22;7457;50.960;6.830;2023-04-24T02:36:30;8.60;82.90
14733;DHT22;7457;50.960;6.830;2023-04-24T02:38:55;8.60;83.00
14733;DHT22;7457;50.960;6.830;2023-04-24T02:41:21;8.70;82.90
14733;DHT22;7457;50.960;6.830;2023-04-24T02:43:47;8.70;82.70
14733;DHT22;7457;50.960;6.830;2023-04-24T02:46:13;8.70;82.80
14733;DHT22;7457;50.960;6.830;2023-04-24T02:48:38;8.80;82.80
14733;DHT22;7457;50.960;6.830;2023-04-24T02:51:04;8.80;82.70
14733;DHT22;7457;50.960;6.830;2023-04-24T02:53:30;8.80;82.60
14733;DHT22;7457;50.960;6.830;2023-04-24T02:55:56;8.90;82.60
14733;DHT22;7457;50.960;6.830;2023-04-24T02:58:22;8.90;82.50
14733;DHT22;7457;50.960;6.830;2023-04-24T03:00:48;8.90;82.50
14733;DHT22;7457;50.960;6.830;2023-04-24T03:03:14;9.00;82.40
14733;DHT22;7457;50.960;6.830;2023-04-24T03:05:40;9.00;82.40
14733;DHT22;7457;50.960;6.830;2023-04-24T03:08:06;9.00;82.40
14733;DHT22;7457;50.960;6.830;2023-04-24T03:10:31;9.00;82.30
14733;DHT22;7457;50.960;6.830;2023-04-24T03:12:57;9.00;82.20
14733;DHT22;7457;50.960;6.830;2023-04-24T03:15:23;9.00;82.20
14733;DHT22;7457;50.960;6.830;2023-04-24T03:17:48;9.00;82.00
14733;DHT22;7457;50.960;6.830;2023-04-24T03:20:14;8.90;82.00
14733;DHT22;7457;50.960;6.830;2023-04-24T03:22:40;8.90;82.30
14733;DHT22;7457;50.960;6.830;2023-04-24T03:25:06;8.90;82.40
14733;DHT22;7457;50.960;6.830;2023-04-24T03:27:33;8.90;82.30
14733;DHT22;7457;50.960;6.830;2023-04-24T03:29:59;8.90;82.30
14733;DHT22;7457;50.960;6.830;2023-04-24T03:32:26;8.90;82.10
14733;DHT22;7457;50.960;6.830;2023-04-24T03:34:51;8.90;81.80
14733;DHT22;7457;50.960;6.830;2023-04-24T03:37:17;8.90;81.70
14733;DHT22;7457;50.960;6.830;2023-04-24T03:39:43;8.80;81.50
14733;DHT22;7457;50.960;6.830;2023-04-24T03:42:09;8.80;81.50
14733;DHT22;7457;50.960;6.830;2023-04-24T03:44:35;8.70;81.80
14733;DHT22;7457;50.960;6.830;2023-04-24T03:47:01;8.60;82.00
14733;DHT22;7457;50.960;6.830;2023-04-24T03:49:27;8.50;82.30
14733;DHT22;7457;50.960;6.830;2023-04-24T03:51:53;8.60;82.60
14733;DHT22;7457;50.960;6.830;2023-04-24T03:54:19;8.50;82.70
14733;DHT22;7457;50.960;6.830;2023-04-24T03:56:45;8.50;82.80
14733;DHT22;7457;50.960;6.830;2023-04-24T03:59:10;8.60;82.80
14733;DHT22;7457;50.960;6.830;2023-04-24T04:01:36;8.60;82.70
14733;DHT22;7457;50.960;6.830;2023-04-24T04:04:06;8.60;82.60
14733;DHT22;7457;50.960;6.830;2023-04-24T04:06:32;8.60;82.50
14733;DHT22;7457;50.960;6.830;2023-04-24T04:08:58;8.70;82.40
14733;DHT22;7457;50.960;6.830;2023-04-24T04:11:24;8.70;82.40
14733;DHT22;7457;50.960;6.830;2023-04-24T04:13:50;8.60;82.40
14733;DHT22;7457;50.960;6.830;2023-04-24T04:16:16;8.60;82.40
14733;DHT22;7457;50.960;6.830;2023-04-24T04:18:45;8.60;82.40
14733;DHT22;7457;50.960;6.830;2023-04-24T04:21:11;8.60;82.50
14733;DHT22;7457;50.960;6.830;2023-04-24T04:23:36;8.60;82.60
14733;DHT22;7457;50.960;6.830;2023-04-24T04:26:03;8.70;82.80
14733;DHT22;7457;50.960;6.830;2023-04-24T04:28:29;8.70;82.90
14733;DHT22;7457;50.960;6.830;2023-04-24T04:30:57;8.70;82.90
14733;DHT22;7457;50.960;6.830;2023-04-24T04:33:24;8.70;83.20
14733;DHT22;7457;50.960;6.830;2023-04-24T04:35:51;8.70;83.30
14733;DHT22;7457;50.960;6.830;2023-04-24T04:38:22;8.70;83.30
14733;DHT22;7457;50.960;6.830;2023-04-24T04:40:47;8.70;83.40
14733;DHT22;7457;50.960;6.830;2023-04-24T04:43:13;8.70;83.40
14733;DHT22;7457;50.960;6.830;2023-04-24T04:45:40;8.70;83.40
14733;DHT22;7457;50.960;6.830;2023-04-24T04:48:08;8.70;83.50
14733;DHT22;7457;50.960;6.830;2023-04-24T04:50:35;8.70;83.50
14733;DHT22;7457;50.960;6.830;2023-04-24T04:53:00;8.80;83.50
14733;DHT22;7457;50.960;6.830;2023-04-24T04:55:26;8.80;83.40
14733;DHT22;7457;50.960;6.830;2023-04-24T04:57:52;8.80;83.30
14733;DHT22;7457;50.960;6.830;2023-04-24T05:00:18;8.90;83.10
14733;DHT22;7457;50.960;6.830;2023-04-24T05:02:44;8.90;83.10
14733;DHT22;7457;50.960;6.830;2023-04-24T05:05:10;8.90;82.90
14733;DHT22;7457;50.960;6.830;2023-04-24T05:07:35;8.90;82.70
14733;DHT22;7457;50.960;6.830;2023-04-24T05:10:01;8.90;82.70
14733;DHT22;7457;50.960;6.830;2023-04-24T05:12:27;8.90;82.30
14733;DHT22;7457;50.960;6.830;2023-04-24T05:14:53;9.00;82.60
14733;DHT22;7457;50.960;6.830;2023-04-24T05:17:18;9.00;82.60
14733;DHT22;7457;50.960;6.830;2023-04-24T05:19:44;9.00;82.40
14733;DHT22;7457;50.960;6.830;2023-04-24T05:22:10;9.00;82.20
14733;DHT22;7457;50.960;6.830;2023-04-24T05:24:37;9.00;82.30
14733;DHT22;7457;50.960;6.830;2023-04-24T05:27:03;9.00;82.40
14733;DHT22;7457;50.960;6.830;2023-04-24T05:29:30;9.00;82.50
14733;DHT22;7457;50.960;6.830;2023-04-24T05:31:59;9.00;82.80
14733;DHT22;7457;50.960;6.830;2023-04-24T05:34:25;8.90;82.80
14733;DHT22;7457;50.960;6.830;2023-04-24T05:36:51;8.90;83.00
14733;DHT22;7457;50.960;6.830;2023-04-24T05:39:17;8.90;83.30
14733;DHT22;7457;50.960;6.830;2023-04-24T05:41:43;8.90;83.80
14733;DHT22;7457;50.960;6.830;2023-04-24T05:44:09;8.80;84.20
14733;DHT22;7457;50.960;6.830;2023-04-24T05:46:34;8.80;84.60
14733;DHT22;7457;50.960;6.830;2023-04-24T05:49:00;8.80;85.50
14733;DHT22;7457;50.960;6.830;2023-04-24T05:51:26;8.80;85.60
14733;DHT22;7457;50.960;6.830;2023-04-24T05:53:51;8.80;85.50
14733;DHT22;7457;50.960;6.830;2023-04-24T05:56:17;8.80;85.40
14733;DHT22;7457;50.960;6.830;2023-04-24T05:58:44;8.90;85.40
14733;DHT22;7457;50.960;6.830;2023-04-24T06:01:10;8.90;85.30
14733;DHT22;7457;50.960;6.830;2023-04-24T06:03:35;8.90;85.10
14733;DHT22;7457;50.960;6.830;2023-04-24T06:06:01;8.90;84.60
14733;DHT22;7457;50.960;6.830;2023-04-24T06:08:27;8.90;84.80
14733;DHT22;7457;50.960;6.830;2023-04-24T06:10:52;8.80;85.00
14733;DHT22;7457;50.960;6.830;2023-04-24T06:13:18;8.80;84.80
14733;DHT22;7457;50.960;6.830;2023-04-24T06:15:43;8.70;85.10
14733;DHT22;7457;50.960;6.830;2023-04-24T06:18:09;8.70;85.60
14733;DHT22;7457;50.960;6.830;2023-04-24T06:20:38;8.70;86.00
14733;DHT22;7457;50.960;6.830;2023-04-24T06:23:04;8.70;86.30
14733;DHT22;7457;50.960;6.830;2023-04-24T06:25:29;8.70;86.30
14733;DHT22;7457;50.960;6.830;2023-04-24T06:27:56;8.70;86.30
14733;DHT22;7457;50.960;6.830;2023-04-24T06:30:22;8.60;86.30
14733;DHT22;7457;50.960;6.830;2023-04-24T06:32:48;8.60;86.80
14733;DHT22;7457;50.960;6.830;2023-04-24T06:35:13;8.50;86.90
14733;DHT22;7457;50.960;6.830;2023-04-24T06:37:41;8.50;87.30
14733;DHT22;7457;50.960;6.830;2023-04-24T06:40:07;8.40;87.80
14733;DHT22;7457;50.960;6.830;2023-04-24T06:42:33;8.40;88.30
14733;DHT22;7457;50.960;6.830;2023-04-24T06:45:00;8.30;88.70
14733;DHT22;7457;50.960;6.830;2023-04-24T06:47:26;8.30;89.20
14733;DHT22;7457;50.960;6.830;2023-04-24T06:49:52;8.20;89.90
14733;DHT22;7457;50.960;6.830;2023-04-24T06:52:18;8.20;90.40
14733;DHT22;7457;50.960;6.830;2023-04-24T06:54:45;8.20;91.00
14733;DHT22;7457;50.960;6.830;2023-04-24T06:57:11;8.10;91.40
14733;DHT22;7457;50.960;6.830;2023-04-24T06:59:37;8.10;91.20
14733;DHT22;7457;50.960;6.830;2023-04-24T07:02:03;8.10;91.20
14733;DHT22;7457;50.960;6.830;2023-04-24T07:04:29;8.10;91.30
14733;DHT22;7457;50.960;6.830;2023-04-24T07:06:55;8.00;91.70
14733;DHT22;7457;50.960;6.830;2023-04-24T07:09:24;8.00;92.30
14733;DHT22;7457;50.960;6.830;2023-04-24T07:11:50;8.00;92.70
14733;DHT22;7457;50.960;6.830;2023-04-24T07:14:16;8.00;92.80
14733;DHT22;7457;50.960;6.830;2023-04-24T07:16:42;8.00;93.20
14733;DHT22;7457;50.960;6.830;2023-04-24T07:19:08;8.00;94.00
14733;DHT22;7457;50.960;6.830;2023-04-24T07:21:34;8.00;94.40
14733;DHT22;7457;50.960;6.830;2023-04-24T07:24:00;8.00;95.40
14733;DHT22;7457;50.960;6.830;2023-04-24T07:26:27;8.00;96.00
14733;DHT22;7457;50.960;6.830;2023-04-24T07:28:54;8.00;96.20
14733;DHT22;7457;50.960;6.830;2023-04-24T07:31:20;8.00;96.10
14733;DHT22;7457;50.960;6.830;2023-04-24T07:33:46;8.00;96.30
14733;DHT22;7457;50.960;6.830;2023-04-24T07:36:12;7.90;96.10
14733;DHT22;7457;50.960;6.830;2023-04-24T07:38:42;7.90;95.80
14733;DHT22;7457;50.960;6.830;2023-04-24T07:41:08;7.80;96.00
14733;DHT22;7457;50.960;6.830;2023-04-24T07:43:34;7.70;96.00
14733;DHT22;7457;50.960;6.830;2023-04-24T07:45:59;7.60;96.40
14733;DHT22;7457;50.960;6.830;2023-04-24T07:48:25;7.50;96.40
14733;DHT22;7457;50.960;6.830;2023-04-24T07:50:52;7.40;96.40
14733;DHT22;7457;50.960;6.830;2023-04-24T07:53:18;7.40;96.70
14733;DHT22;7457;50.960;6.830;2023-04-24T07:55:43;7.30;96.90
14733;DHT22;7457;50.960;6.830;2023-04-24T07:58:09;7.20;97.30
14733;DHT22;7457;50.960;6.830;2023-04-24T08:00:35;7.20;97.30
14733;DHT22;7457;50.960;6.830;2023-04-24T08:03:01;7.10;97.60
14733;DHT22;7457;50.960;6.830;2023-04-24T08:05:27;7.10;97.60
14733;DHT22;7457;50.960;6.830;2023-04-24T08:07:54;7.10;97.60
14733;DHT22;7457;50.960;6.830;2023-04-24T08:10:24;7.00;97.70
14733;DHT22;7457;50.960;6.830;2023-04-24T08:12:49;7.00;97.40
14733;DHT22;7457;50.960;6.830;2023-04-24T08:15:15;6.90;97.50
14733;DHT22;7457;50.960;6.830;2023-04-24T08:17:41;6.90;98.00
14733;DHT22;7457;50.960;6.830;2023-04-24T08:20:10;6.80;98.50
14733;DHT22;7457;50.960;6.830;2023-04-24T08:22:42;6.80;98.70
14733;DHT22;7457;50.960;6.830;2023-04-24T08:25:09;6.80;98.60
14733;DHT22;7457;50.960;6.830;2023-04-24T08:27:35;6.80;98.40
14733;DHT22;7457;50.960;6.830;2023-04-24T08:30:03;6.70;98.60
14733;DHT22;7457;50.960;6.830;2023-04-24T08:32:28;6.70;98.70
14733;DHT22;7457;50.960;6.830;2023-04-24T08:34:55;6.70;98.90
14733;DHT22;7457;50.960;6.830;2023-04-24T08:37:22;6.60;99.00
14733;DHT22;7457;50.960;6.830;2023-04-24T08:39:49;6.60;99.40
14733;DHT22;7457;50.960;6.830;2023-04-24T08:42:16;6.60;99.70
14733;DHT22;7457;50.960;6.830;2023-04-24T08:44:42;6.70;99.70
14733;DHT22;7457;50.960;6.830;2023-04-24T08:47:08;6.70;99.60
14733;DHT22;7457;50.960;6.830;2023-04-24T08:49:36;6.70;99.60
14733;DHT22;7457;50.960;6.830;2023-04-24T08:52:03;6.70;99.70
14733;DHT22;7457;50.960;6.830;2023-04-24T08:54:30;6.70;99.80
14733;DHT22;7457;50.960;6.830;2023-04-24T08:57:00;6.70;99.90
14733;DHT22;7457;50.960;6.830;2023-04-24T08:59:27;6.70;99.80
14733;DHT22;7457;50.960;6.830;2023-04-24T09:01:53;6.80;100.00
14733;DHT22;7457;50.960;6.830;2023-04-24T09:04:20;6.80;100.00
14733;DHT22;7457;50.960;6.830;2023-04-24T09:06:48;6.80;100.00
14733;DHT22;7457;50.960;6.830;2023-04-24T09:09:16;6.80;100.00
14733;DHT22;7457;50.960;6.830;2023-04-24T09:11:43;6.80;100.00
14733;DHT22;7457;50.960;6.830;2023-04-24T09:14:10;6.90;100.00
14733;DHT22;7457;50.960;6.830;2023-04-24T09:16:36;7.00;100.00
14733;DHT22;7457;50.960;6.830;2023-04-24T09:19:02;7.00;100.00
14733;DHT22;7457;50.960;6.830;2023-04-24T09:21:32;7.10;100.00
14733;DHT22;7457;50.960;6.830;2023-04-24T09:24:04;7.10;100.00
14733;DHT22;7457;50.960;6.830;2023-04-24T09:26:31;7.20;100.00
14733;DHT22;7457;50.960;6.830;2023-04-24T09:28:58;7.30;100.00
14733;DHT22;7457;50.960;6.830;2023-04-24T09:31:27;7.30;100.00
14733;DHT22;7457;50.960;6.830;2023-04-24T09:34:04;7.40;100.00
14733;DHT22;7457;50.960;6.830;2023-04-24T09:36:37;7.50;100.00
14733;DHT22;7457;50.960;6.830;2023-04-24T09:39:05;7.50;100.00
14733;DHT22;7457;50.960;6.830;2023-04-24T09:41:32;7.60;100.00
14733;DHT22;7457;50.960;6.830;2023-04-24T09:44:14;7.70;100.00
14733;DHT22;7457;50.960;6.830;2023-04-24T09:46:41;7.80;100.00
14733;DHT22;7457;50.960;6.830;2023-04-24T09:49:13;8.00;100.00
14733;DHT22;7457;50.960;6.830;2023-04-24T09:51:39;8.10;100.00
14733;DHT22;7457;50.960;6.830;2023-04-24T09:54:16;8.20;100.00
14733;DHT22;7457;50.960;6.830;2023-04-24T09:56:43;8.30;100.00
14733;DHT22;7457;50.960;6.830;2023-04-24T09:59:10;8.50;100.00
14733;DHT22;7457;50.960;6.830;2023-04-24T10:01:36;8.60;100.00
14733;DHT22;7457;50.960;6.830;2023-04-24T10:04:04;8.70;100.00
14733;DHT22;7457;50.960;6.830;2023-04-24T10:06:36;8.90;100.00
14733;DHT22;7457;50.960;6.830;2023-04-24T10:09:02;9.00;99.80
14733;DHT22;7457;50.960;6.830;2023-04-24T10:11:30;9.10;99.50
14733;DHT22;7457;50.960;6.830;2023-04-24T10:13:56;9.30;99.10
14733;DHT22;7457;50.960;6.830;2023-04-24T10:16:24;9.40;98.60
14733;DHT22;7457;50.960;6.830;2023-04-24T10:18:52;9.50;98.10
14733;DHT22;7457;50.960;6.830;2023-04-24T10:21:18;9.50;97.80
14733;DHT22;7457;50.960;6.830;2023-04-24T10:23:44;9.60;97.30
14733;DHT22;7457;50.960;6.830;2023-04-24T10:26:15;9.60;97.30
14733;DHT22;7457;50.960;6.830;2023-04-24T10:28:46;9.60;97.10
14733;DHT22;7457;50.960;6.830;2023-04-24T10:31:13;9.70;97.20
14733;DHT22;7457;50.960;6.830;2023-04-24T10:33:43;9.70;96.70
14733;DHT22;7457;50.960;6.830;2023-04-24T10:36:12;9.80;96.00
14733;DHT22;7457;50.960;6.830;2023-04-24T10:38:40;9.90;96.10
14733;DHT22;7457;50.960;6.830;2023-04-24T10:41:11;9.90;95.30
14733;DHT22;7457;50.960;6.830;2023-04-24T10:43:45;9.90;95.40
14733;DHT22;7457;50.960;6.830;2023-04-24T10:46:10;10.00;95.70
14733;DHT22;7457;50.960;6.830;2023-04-24T10:48:42;10.00;95.30
14733;DHT22;7457;50.960;6.830;2023-04-24T10:51:12;10.10;95.40
14733;DHT22;7457;50.960;6.830;2023-04-24T10:53:38;10.30;95.50
14733;DHT22;7457;50.960;6.830;2023-04-24T10:56:06;10.60;94.80
14733;DHT22;7457;50.960;6.830;2023-04-24T11:01:06;10.80;92.70
14733;DHT22;7457;50.960;6.830;2023-04-24T11:03:34;10.70;90.70
14733;DHT22;7457;50.960;6.830;2023-04-24T11:06:07;10.50;89.90
14733;DHT22;7457;50.960;6.830;2023-04-24T11:08:38;10.30;90.20
14733;DHT22;7457;50.960;6.830;2023-04-24T11:11:15;10.20;91.80
14733;DHT22;7457;50.960;6.830;2023-04-24T11:16:29;10.10;91.20
14733;DHT22;7457;50.960;6.830;2023-04-24T11:19:09;10.10;91.70
14733;DHT22;7457;50.960;6.830;2023-04-24T11:21:41;10.20;92.00
14733;DHT22;7457;50.960;6.830;2023-04-24T11:26:58;10.60;92.90
14733;DHT22;7457;50.960;6.830;2023-04-24T11:34:54;10.80;89.30
14733;DHT22;7457;50.960;6.830;2023-04-24T11:37:21;10.60;89.20
14733;DHT22;7457;50.960;6.830;2023-04-24T11:39:46;10.40;90.10
14733;DHT22;7457;50.960;6.830;2023-04-24T11:42:15;10.40;90.80
14733;DHT22;7457;50.960;6.830;2023-04-24T11:44:42;10.60;91.60
14733;DHT22;7457;50.960;6.830;2023-04-24T11:47:08;10.80;91.30
14733;DHT22;7457;50.960;6.830;2023-04-24T11:49:36;10.90;91.50
14733;DHT22;7457;50.960;6.830;2023-04-24T11:52:02;11.20;92.30
14733;DHT22;7457;50.960;6.830;2023-04-24T11:54:28;11.70;90.90
14733;DHT22;7457;50.960;6.830;2023-04-24T11:56:55;12.00;89.70
14733;DHT22;7457;50.960;6.830;2023-04-24T11:59:21;12.10;88.40
14733;DHT22;7457;50.960;6.830;2023-04-24T12:01:47;12.30;88.10
14733;DHT22;7457;50.960;6.830;2023-04-24T12:04:15;12.60;87.50
14733;DHT22;7457;50.960;6.830;2023-04-24T12:06:59;12.70;85.70
14733;DHT22;7457;50.960;6.830;2023-04-24T12:09:25;12.60;83.50
14733;DHT22;7457;50.960;6.830;2023-04-24T12:11:56;12.40;83.60
14733;DHT22;7457;50.960;6.830;2023-04-24T12:14:23;12.20;83.80
14733;DHT22;7457;50.960;6.830;2023-04-24T12:16:50;12.20;84.30
14733;DHT22;7457;50.960;6.830;2023-04-24T12:19:22;12.30;85.10
14733;DHT22;7457;50.960;6.830;2023-04-24T12:22:05;12.40;84.20
14733;DHT22;7457;50.960;6.830;2023-04-24T12:24:31;12.50;83.50
14733;DHT22;7457;50.960;6.830;2023-04-24T12:26:58;12.80;83.90
14733;DHT22;7457;50.960;6.830;2023-04-24T12:29:24;13.10;81.90
14733;DHT22;7457;50.960;6.830;2023-04-24T12:31:51;13.10;80.70
14733;DHT22;7457;50.960;6.830;2023-04-24T12:34:21;13.20;80.50
14733;DHT22;7457;50.960;6.830;2023-04-24T12:36:47;13.10;79.50
14733;DHT22;7457;50.960;6.830;2023-04-24T12:39:20;13.00;78.50
14733;DHT22;7457;50.960;6.830;2023-04-24T12:41:57;12.80;77.40
14733;DHT22;7457;50.960;6.830;2023-04-24T12:44:34;12.40;77.90
14733;DHT22;7457;50.960;6.830;2023-04-24T12:47:00;12.10;78.50
14733;DHT22;7457;50.960;6.830;2023-04-24T12:49:27;11.80;79.10
14733;DHT22;7457;50.960;6.830;2023-04-24T12:51:53;11.60;80.10
14733;DHT22;7457;50.960;6.830;2023-04-24T12:54:19;11.60;81.40
14733;DHT22;7457;50.960;6.830;2023-04-24T12:56:45;11.70;82.30
14733;DHT22;7457;50.960;6.830;2023-04-24T12:59:10;11.80;82.20
14733;DHT22;7457;50.960;6.830;2023-04-24T13:01:36;12.00;82.40
14733;DHT22;7457;50.960;6.830;2023-04-24T13:04:02;12.20;81.00
14733;DHT22;7457;50.960;6.830;2023-04-24T13:06:27;12.40;80.20
14733;DHT22;7457;50.960;6.830;2023-04-24T13:08:53;12.40;79.40
14733;DHT22;7457;50.960;6.830;2023-04-24T13:11:20;12.50;79.20
14733;DHT22;7457;50.960;6.830;2023-04-24T13:13:47;12.60;78.30
14733;DHT22;7457;50.960;6.830;2023-04-24T13:16:13;12.50;77.20
14733;DHT22;7457;50.960;6.830;2023-04-24T13:18:38;12.50;78.10
14733;DHT22;7457;50.960;6.830;2023-04-24T13:21:04;12.50;77.30
14733;DHT22;7457;50.960;6.830;2023-04-24T13:23:30;12.50;76.60
14733;DHT22;7457;50.960;6.830;2023-04-24T13:25:55;12.50;76.90
14733;DHT22;7457;50.960;6.830;2023-04-24T13:28:24;12.70;77.40
14733;DHT22;7457;50.960;6.830;2023-04-24T13:30:50;12.90;76.50
14733;DHT22;7457;50.960;6.830;2023-04-24T13:33:16;13.00;74.70
14733;DHT22;7457;50.960;6.830;2023-04-24T13:35:42;13.00;73.90
14733;DHT22;7457;50.960;6.830;2023-04-24T13:38:07;12.90;74.10
14733;DHT22;7457;50.960;6.830;2023-04-24T13:40:33;12.80;73.90
14733;DHT22;7457;50.960;6.830;2023-04-24T13:42:59;12.70;74.20
14733;DHT22;7457;50.960;6.830;2023-04-24T13:45:26;12.70;74.30
14733;DHT22;7457;50.960;6.830;2023-04-24T13:47:52;12.60;73.80
14733;DHT22;7457;50.960;6.830;2023-04-24T13:50:19;12.50;74.00
14733;DHT22;7457;50.960;6.830;2023-04-24T13:52:45;12.60;74.80
14733;DHT22;7457;50.960;6.830;2023-04-24T13:55:11;12.70;75.20
14733;DHT22;7457;50.960;6.830;2023-04-24T13:57:37;12.90;74.70
14733;DHT22;7457;50.960;6.830;2023-04-24T14:00:03;13.10;74.80
14733;DHT22;7457;50.960;6.830;2023-04-24T14:02:29;13.30;74.90
14733;DHT22;7457;50.960;6.830;2023-04-24T14:04:55;13.50;73.60
14733;DHT22;7457;50.960;6.830;2023-04-24T14:07:21;13.60;72.90
14733;DHT22;7457;50.960;6.830;2023-04-24T14:09:46;13.60;72.90
14733;DHT22;7457;50.960;6.830;2023-04-24T14:12:12;13.60;71.50
14733;DHT22;7457;50.960;6.830;2023-04-24T14:14:39;13.50;71.30
14733;DHT22;7457;50.960;6.830;2023-04-24T14:17:05;13.50;72.00
14733;DHT22;7457;50.960;6.830;2023-04-24T14:19:31;13.40;71.70
14733;DHT22;7457;50.960;6.830;2023-04-24T14:21:56;13.30;71.30
14733;DHT22;7457;50.960;6.830;2023-04-24T14:24:23;13.30;70.50
14733;DHT22;7457;50.960;6.830;2023-04-24T14:26:49;13.20;70.80
14733;DHT22;7457;50.960;6.830;2023-04-24T14:29:15;13.20;70.30
14733;DHT22;7457;50.960;6.830;2023-04-24T14:31:42;13.20;69.20
14733;DHT22;7457;50.960;6.830;2023-04-24T14:34:08;13.10;68.90
14733;DHT22;7457;50.960;6.830;2023-04-24T14:36:33;13.00;69.20
14733;DHT22;7457;50.960;6.830;2023-04-24T14:38:59;13.00;69.30
14733;DHT22;7457;50.960;6.830;2023-04-24T14:41:25;13.10;70.30
14733;DHT22;7457;50.960;6.830;2023-04-24T14:43:50;13.10;70.10
14733;DHT22;7457;50.960;6.830;2023-04-24T14:46:16;13.20;69.40
14733;DHT22;7457;50.960;6.830;2023-04-24T14:48:42;13.30;69.10
14733;DHT22;7457;50.960;6.830;2023-04-24T14:51:07;13.40;69.20
14733;DHT22;7457;50.960;6.830;2023-04-24T14:53:33;13.60;68.90
14733;DHT22;7457;50.960;6.830;2023-04-24T14:55:59;13.60;68.30
14733;DHT22;7457;50.960;6.830;2023-04-24T14:58:25;13.70;68.30
14733;DHT22;7457;50.960;6.830;2023-04-24T15:00:50;13.80;67.70
14733;DHT22;7457;50.960;6.830;2023-04-24T15:03:18;13.70;67.30
14733;DHT22;7457;50.960;6.830;2023-04-24T15:05:44;13.40;67.30
14733;DHT22;7457;50.960;6.830;2023-04-24T15:08:10;13.20;67.70
14733;DHT22;7457;50.960;6.830;2023-04-24T15:10:35;13.00;69.00
14733;DHT22;7457;50.960;6.830;2023-04-24T15:13:01;12.80;69.40
14733;DHT22;7457;50.960;6.830;2023-04-24T15:15:27;12.80;68.60
14733;DHT22;7457;50.960;6.830;2023-04-24T15:17:52;12.70;69.10
14733;DHT22;7457;50.960;6.830;2023-04-24T15:20:18;12.70;70.20
14733;DHT22;7457;50.960;6.830;2023-04-24T15:22:43;12.70;70.40
14733;DHT22;7457;50.960;6.830;2023-04-24T15:25:10;12.80;68.90
14733;DHT22;7457;50.960;6.830;2023-04-24T15:27:43;12.80;68.90
14733;DHT22;7457;50.960;6.830;2023-04-24T15:30:09;12.70;69.40
14733;DHT22;7457;50.960;6.830;2023-04-24T15:32:35;12.60;69.60
14733;DHT22;7457;50.960;6.830;2023-04-24T15:35:01;12.60;69.20
14733;DHT22;7457;50.960;6.830;2023-04-24T15:37:27;12.60;69.40
14733;DHT22;7457;50.960;6.830;2023-04-24T15:39:52;12.60;68.50
14733;DHT22;7457;50.960;6.830;2023-04-24T15:42:18;12.60;68.50
14733;DHT22;7457;50.960;6.830;2023-04-24T15:44:43;12.60;68.50
14733;DHT22;7457;50.960;6.830;2023-04-24T15:47:09;12.50;68.80
14733;DHT22;7457;50.960;6.830;2023-04-24T15:49:35;12.50;68.80
14733;DHT22;7457;50.960;6.830;2023-04-24T15:52:01;12.60;69.50
14733;DHT22;7457;50.960;6.830;2023-04-24T15:54:26;12.60;68.70
14733;DHT22;7457;50.960;6.830;2023-04-24T15:56:52;12.50;67.80
14733;DHT22;7457;50.960;6.830;2023-04-24T15:59:18;12.40;67.80
14733;DHT22;7457;50.960;6.830;2023-04-24T16:01:43;12.30;68.30
14733;DHT22;7457;50.960;6.830;2023-04-24T16:04:09;12.20;68.30
14733;DHT22;7457;50.960;6.830;2023-04-24T16:06:35;12.20;68.50